sensor_id;sensor_type;location;lat;lon;timestamp;pressure;altitude;pressure_sealevel;temperature;humidity
73024;BME280;72676;47.526;8.538;2023-11-21T00:02:25;96005.81;;;11.38;65.31
73024;BME280;72676;47.526;8.538;2023-11-21T00:04:53;96003.22;;;10.93;66.33
73024;BME280;72676;47.526;8.538;2023-11-21T00:07:20;96002.22;;;10.40;68.34
73024;BME280;72676;47.526;8.538;2023-11-21T00:09:47;95991.03;;;10.11;69.49
73024;BME280;72676;47.526;8.538;2023-11-21T00:12:14;95997.78;;;9.95;70.18
73024;BME280;72676;47.526;8.538;2023-11-21T00:14:40;95997.00;;;9.75;70.94
73024;BME280;72676;47.526;8.538;2023-11-21T00:17:07;95994.41;;;9.66;71.83
73024;BME280;72676;47.526;8.538;2023-11-21T00:19:34;96004.88;;;9.56;71.97
73024;BME280;72676;47.526;8.538;2023-11-21T00:22:01;96004.03;;;9.46;73.15
73024;BME280;72676;47.526;8.538;2023-11-21T00:24:27;95997.16;;;9.26;73.76
73024;BME280;72676;47.526;8.538;2023-11-21T00:26:54;95997.16;;;9.26;74.15
73024;BME280;72676;47.526;8.538;2023-11-21T00:29:20;95999.66;;;9.28;74.36
73024;BME280;72676;47.526;8.538;2023-11-21T00:31:47;96008.31;;;9.28;73.25
73024;BME280;72676;47.526;8.538;2023-11-21T00:34:13;96006.38;;;9.30;73.94
73024;BME280;72676;47.526;8.538;2023-11-21T00:36:40;96011.75;;;9.29;73.39
73024;BME280;72676;47.526;8.538;2023-11-21T00:39:06;96004.75;;;9.39;73.42
73024;BME280;72676;47.526;8.538;2023-11-21T00:41:33;95991.38;;;9.42;74.14
73024;BME280;72676;47.526;8.538;2023-11-21T00:44:00;95994.56;;;9.45;73.77
73024;BME280;72676;47.526;8.538;2023-11-21T00:46:28;95991.66;;;9.58;73.55
73024;BME280;72676;47.526;8.538;2023-11-21T00:48:55;95997.88;;;9.57;73.20
73024;BME280;72676;47.526;8.538;2023-11-21T00:51:22;95987.56;;;9.46;73.44
73024;BME280;72676;47.526;8.538;2023-11-21T00:53:48;95979.00;;;9.44;73.80
73024;BME280;72676;47.526;8.538;2023-11-21T00:56:15;95975.72;;;9.32;74.30
73024;BME280;72676;47.526;8.538;2023-11-21T00:58:41;95974.47;;;9.36;73.82
73024;BME280;72676;47.526;8.538;2023-11-21T01:01:16;95969.41;;;9.25;73.95
73024;BME280;72676;47.526;8.538;2023-11-21T01:03:42;95973.78;;;9.34;74.04
73024;BME280;72676;47.526;8.538;2023-11-21T01:06:09;95972.69;;;9.37;74.15
73024;BME280;72676;47.526;8.538;2023-11-21T01:08:38;95960.31;;;9.39;74.22
73024;BME280;72676;47.526;8.538;2023-11-21T01:11:05;95973.25;;;9.31;74.08
73024;BME280;72676;47.526;8.538;2023-11-21T01:13:34;95972.00;;;9.25;74.18
73024;BME280;72676;47.526;8.538;2023-11-21T01:16:01;95970.47;;;9.04;74.88
73024;BME280;72676;47.526;8.538;2023-11-21T01:18:28;95975.59;;;9.05;75.66
73024;BME280;72676;47.526;8.538;2023-11-21T01:20:55;95983.97;;;9.18;75.74
73024;BME280;72676;47.526;8.538;2023-11-21T01:23:21;95983.56;;;9.13;76.06
73024;BME280;72676;47.526;8.538;2023-11-21T01:25:49;96001.41;;;9.08;76.95
73024;BME280;72676;47.526;8.538;2023-11-21T01:28:17;95995.78;;;8.94;76.64
73024;BME280;72676;47.526;8.538;2023-11-21T01:30:44;95982.28;;;8.89;76.87
73024;BME280;72676;47.526;8.538;2023-11-21T01:33:10;95984.63;;;9.01;76.82
73024;BME280;72676;47.526;8.538;2023-11-21T01:35:37;95989.47;;;9.15;76.47
73024;BME280;72676;47.526;8.538;2023-11-21T01:38:03;95984.66;;;9.11;75.59
73024;BME280;72676;47.526;8.538;2023-11-21T01:40:30;95978.06;;;9.16;75.62
73024;BME280;72676;47.526;8.538;2023-11-21T01:42:56;95986.16;;;9.23;75.16
73024;BME280;72676;47.526;8.538;2023-11-21T01:45:24;95980.13;;;9.22;74.76
73024;BME280;72676;47.526;8.538;2023-11-21T01:47:51;95983.72;;;9.40;74.91
73024;BME280;72676;47.526;8.538;2023-11-21T01:50:22;95983.41;;;9.53;74.30
73024;BME280;72676;47.526;8.538;2023-11-21T01:52:49;95985.31;;;9.70;73.95
73024;BME280;72676;47.526;8.538;2023-11-21T01:55:17;95983.25;;;9.73;73.81
73024;BME280;72676;47.526;8.538;2023-11-21T01:57:54;95987.88;;;9.89;72.93
73024;BME280;72676;47.526;8.538;2023-11-21T02:00:22;95985.25;;;9.98;73.25
73024;BME280;72676;47.526;8.538;2023-11-21T02:02:49;95990.19;;;10.20;72.46
73024;BME280;72676;47.526;8.538;2023-11-21T02:05:17;95990.41;;;10.36;71.63
73024;BME280;72676;47.526;8.538;2023-11-21T02:07:47;95991.63;;;10.05;71.96
73024;BME280;72676;47.526;8.538;2023-11-21T02:10:15;95990.78;;;9.86;72.80
73024;BME280;72676;47.526;8.538;2023-11-21T02:12:43;95985.56;;;9.76;73.63
73024;BME280;72676;47.526;8.538;2023-11-21T02:15:12;95987.25;;;9.39;75.46
73024;BME280;72676;47.526;8.538;2023-11-21T02:17:42;95992.75;;;9.17;76.71
73024;BME280;72676;47.526;8.538;2023-11-21T02:20:13;95988.09;;;9.30;76.60
73024;BME280;72676;47.526;8.538;2023-11-21T02:22:51;95990.31;;;9.25;76.65
73024;BME280;72676;47.526;8.538;2023-11-21T02:25:29;95986.19;;;9.51;76.30
73024;BME280;72676;47.526;8.538;2023-11-21T02:27:56;95986.97;;;9.71;75.77
73024;BME280;72676;47.526;8.538;2023-11-21T02:30:23;95989.69;;;9.88;75.41
73024;BME280;72676;47.526;8.538;2023-11-21T02:32:51;95985.25;;;9.98;74.44
73024;BME280;72676;47.526;8.538;2023-11-21T02:35:21;95983.25;;;9.83;75.19
73024;BME280;72676;47.526;8.538;2023-11-21T02:37:48;95990.56;;;9.60;75.08
73024;BME280;72676;47.526;8.538;2023-11-21T02:40:14;95980.53;;;9.56;75.61
73024;BME280;72676;47.526;8.538;2023-11-21T02:42:44;95987.81;;;9.52;75.78
73024;BME280;72676;47.526;8.538;2023-11-21T02:45:11;95979.56;;;9.47;75.33
73024;BME280;72676;47.526;8.538;2023-11-21T02:47:43;95975.72;;;9.51;75.93
73024;BME280;72676;47.526;8.538;2023-11-21T02:50:10;95982.59;;;9.52;75.96
73024;BME280;72676;47.526;8.538;2023-11-21T02:52:37;95976.78;;;9.77;75.12
73024;BME280;72676;47.526;8.538;2023-11-21T02:55:04;95978.31;;;9.70;74.73
73024;BME280;72676;47.526;8.538;2023-11-21T02:57:30;95980.38;;;9.48;75.69
73024;BME280;72676;47.526;8.538;2023-11-21T02:59:57;95979.28;;;9.22;76.23
73024;BME280;72676;47.526;8.538;2023-11-21T03:02:23;95976.25;;;8.98;75.94
73024;BME280;72676;47.526;8.538;2023-11-21T03:04:50;95975.56;;;8.86;76.83
73024;BME280;72676;47.526;8.538;2023-11-21T03:07:17;95968.34;;;8.60;78.12
73024;BME280;72676;47.526;8.538;2023-11-21T03:09:45;95958.06;;;8.68;78.01
73024;BME280;72676;47.526;8.538;2023-11-21T03:12:12;95957.53;;;8.83;77.46
73024;BME280;72676;47.526;8.538;2023-11-21T03:14:41;95947.91;;;8.74;78.01
73024;BME280;72676;47.526;8.538;2023-11-21T03:17:07;95947.38;;;8.99;77.40
73024;BME280;72676;47.526;8.538;2023-11-21T03:19:34;95942.16;;;9.18;77.13
73024;BME280;72676;47.526;8.538;2023-11-21T03:22:00;95934.97;;;9.39;76.34
73024;BME280;72676;47.526;8.538;2023-11-21T03:24:26;95941.03;;;9.59;75.91
73024;BME280;72676;47.526;8.538;2023-11-21T03:26:53;95945.25;;;9.79;75.08
73024;BME280;72676;47.526;8.538;2023-11-21T03:29:19;95946.34;;;9.76;74.55
73024;BME280;72676;47.526;8.538;2023-11-21T03:31:46;95948.69;;;9.79;74.63
73024;BME280;72676;47.526;8.538;2023-11-21T03:34:19;95948.34;;;10.01;74.01
73024;BME280;72676;47.526;8.538;2023-11-21T03:36:46;95946.72;;;10.10;73.96
73024;BME280;72676;47.526;8.538;2023-11-21T03:39:13;95952.72;;;10.20;73.48
73024;BME280;72676;47.526;8.538;2023-11-21T03:41:39;95948.41;;;10.28;73.22
73024;BME280;72676;47.526;8.538;2023-11-21T03:44:06;95954.91;;;10.24;73.32
73024;BME280;72676;47.526;8.538;2023-11-21T03:46:32;95951.63;;;10.22;73.21
73024;BME280;72676;47.526;8.538;2023-11-21T03:48:59;95949.34;;;10.37;72.85
73024;BME280;72676;47.526;8.538;2023-11-21T03:51:25;95950.78;;;10.22;73.30
73024;BME280;72676;47.526;8.538;2023-11-21T03:53:51;95962.53;;;10.18;73.05
73024;BME280;72676;47.526;8.538;2023-11-21T03:56:18;95952.50;;;9.94;74.26
73024;BME280;72676;47.526;8.538;2023-11-21T03:58:44;95955.31;;;9.74;75.02
73024;BME280;72676;47.526;8.538;2023-11-21T04:01:11;95955.69;;;9.79;75.37
73024;BME280;72676;47.526;8.538;2023-11-21T04:03:37;95957.84;;;9.47;76.56
73024;BME280;72676;47.526;8.538;2023-11-21T04:06:05;95957.00;;;9.27;77.29
73024;BME280;72676;47.526;8.538;2023-11-21T04:08:32;95955.34;;;8.98;78.50
73024;BME280;72676;47.526;8.538;2023-11-21T04:11:00;95962.59;;;8.75;79.47
73024;BME280;72676;47.526;8.538;2023-11-21T04:13:27;95960.00;;;8.75;79.88
73024;BME280;72676;47.526;8.538;2023-11-21T04:15:53;95957.25;;;8.68;80.24
73024;BME280;72676;47.526;8.538;2023-11-21T04:18:20;95961.59;;;8.57;80.53
73024;BME280;72676;47.526;8.538;2023-11-21T04:20:48;95952.84;;;8.59;80.65
73024;BME280;72676;47.526;8.538;2023-11-21T04:23:14;95956.66;;;8.55;81.12
73024;BME280;72676;47.526;8.538;2023-11-21T04:25:41;95953.88;;;8.47;81.79
73024;BME280;72676;47.526;8.538;2023-11-21T04:28:07;95960.19;;;8.44;81.78
73024;BME280;72676;47.526;8.538;2023-11-21T04:30:34;95959.91;;;8.38;81.82
73024;BME280;72676;47.526;8.538;2023-11-21T04:33:00;95949.75;;;8.44;81.19
73024;BME280;72676;47.526;8.538;2023-11-21T04:35:27;95965.72;;;8.60;80.66
73024;BME280;72676;47.526;8.538;2023-11-21T04:37:53;95966.28;;;8.63;80.66
73024;BME280;72676;47.526;8.538;2023-11-21T04:40:20;95964.81;;;8.70;80.98
73024;BME280;72676;47.526;8.538;2023-11-21T04:42:47;95964.72;;;8.91;79.66
73024;BME280;72676;47.526;8.538;2023-11-21T04:45:15;95970.06;;;8.89;79.40
73024;BME280;72676;47.526;8.538;2023-11-21T04:47:42;95975.09;;;8.63;80.33
73024;BME280;72676;47.526;8.538;2023-11-21T04:50:10;95974.25;;;8.53;81.16
73024;BME280;72676;47.526;8.538;2023-11-21T04:52:36;95969.13;;;8.42;81.79
73024;BME280;72676;47.526;8.538;2023-11-21T04:55:03;95965.72;;;8.51;81.74
73024;BME280;72676;47.526;8.538;2023-11-21T04:57:30;95967.47;;;8.41;81.66
73024;BME280;72676;47.526;8.538;2023-11-21T04:59:56;95968.41;;;8.40;82.48
73024;BME280;72676;47.526;8.538;2023-11-21T05:02:23;95972.25;;;8.26;82.60
73024;BME280;72676;47.526;8.538;2023-11-21T05:05:02;95967.31;;;8.33;83.47
73024;BME280;72676;47.526;8.538;2023-11-21T05:07:28;95970.72;;;8.24;83.88
73024;BME280;72676;47.526;8.538;2023-11-21T05:09:58;95970.63;;;8.35;83.63
73024;BME280;72676;47.526;8.538;2023-11-21T05:12:25;95978.59;;;8.43;83.17
73024;BME280;72676;47.526;8.538;2023-11-21T05:14:51;95976.16;;;8.51;82.63
73024;BME280;72676;47.526;8.538;2023-11-21T05:17:18;95986.81;;;8.77;82.10
73024;BME280;72676;47.526;8.538;2023-11-21T05:19:44;95976.31;;;8.59;81.95
73024;BME280;72676;47.526;8.538;2023-11-21T05:22:15;95975.56;;;8.38;81.96
73024;BME280;72676;47.526;8.538;2023-11-21T05:24:41;95981.72;;;8.27;83.12
73024;BME280;72676;47.526;8.538;2023-11-21T05:27:08;95985.69;;;8.31;83.17
73024;BME280;72676;47.526;8.538;2023-11-21T05:29:35;95994.38;;;8.32;82.93
73024;BME280;72676;47.526;8.538;2023-11-21T05:32:04;95989.38;;;8.29;83.18
73024;BME280;72676;47.526;8.538;2023-11-21T05:34:30;95995.41;;;8.50;82.64
73024;BME280;72676;47.526;8.538;2023-11-21T05:36:56;95993.47;;;8.52;82.09
73024;BME280;72676;47.526;8.538;2023-11-21T05:39:24;96003.13;;;8.61;81.32
73024;BME280;72676;47.526;8.538;2023-11-21T05:41:51;95999.09;;;8.57;81.82
73024;BME280;72676;47.526;8.538;2023-11-21T05:44:17;95998.56;;;8.63;81.22
73024;BME280;72676;47.526;8.538;2023-11-21T05:46:44;95999.03;;;8.68;81.32
73024;BME280;72676;47.526;8.538;2023-11-21T05:49:10;95997.34;;;8.66;81.38
73024;BME280;72676;47.526;8.538;2023-11-21T05:51:37;96005.03;;;8.59;81.49
73024;BME280;72676;47.526;8.538;2023-11-21T05:54:04;95998.84;;;8.60;81.38
73024;BME280;72676;47.526;8.538;2023-11-21T05:56:31;95992.50;;;8.53;81.75
73024;BME280;72676;47.526;8.538;2023-11-21T05:58:58;96007.47;;;8.51;82.21
73024;BME280;72676;47.526;8.538;2023-11-21T06:01:25;96012.25;;;8.46;82.54
73024;BME280;72676;47.526;8.538;2023-11-21T06:03:54;96014.50;;;8.30;83.11
73024;BME280;72676;47.526;8.538;2023-11-21T06:06:21;96012.56;;;8.22;83.13
73024;BME280;72676;47.526;8.538;2023-11-21T06:08:51;96016.88;;;8.33;83.13
73024;BME280;72676;47.526;8.538;2023-11-21T06:11:18;96023.00;;;8.22;83.64
73024;BME280;72676;47.526;8.538;2023-11-21T06:13:44;96023.31;;;8.29;84.11
73024;BME280;72676;47.526;8.538;2023-11-21T06:16:11;96022.91;;;8.33;84.02
73024;BME280;72676;47.526;8.538;2023-11-21T06:18:42;96022.50;;;8.28;84.09
73024;BME280;72676;47.526;8.538;2023-11-21T06:21:10;96027.41;;;8.22;84.13
73024;BME280;72676;47.526;8.538;2023-11-21T06:23:37;96032.38;;;8.25;84.29
73024;BME280;72676;47.526;8.538;2023-11-21T06:26:04;96024.53;;;8.25;84.50
73024;BME280;72676;47.526;8.538;2023-11-21T06:28:31;96031.19;;;8.18;84.68
73024;BME280;72676;47.526;8.538;2023-11-21T06:30:58;96024.25;;;8.28;84.65
73024;BME280;72676;47.526;8.538;2023-11-21T06:33:24;96025.97;;;8.18;85.18
73024;BME280;72676;47.526;8.538;2023-11-21T06:35:53;96021.03;;;8.15;85.68
73024;BME280;72676;47.526;8.538;2023-11-21T06:38:21;96026.25;;;8.15;85.57
73024;BME280;72676;47.526;8.538;2023-11-21T06:40:47;96033.16;;;8.25;85.25
73024;BME280;72676;47.526;8.538;2023-11-21T06:43:14;96034.06;;;8.15;85.90
73024;BME280;72676;47.526;8.538;2023-11-21T06:45:41;96028.16;;;8.13;85.94
73024;BME280;72676;47.526;8.538;2023-11-21T06:48:08;96030.03;;;8.11;86.27
73024;BME280;72676;47.526;8.538;2023-11-21T06:50:35;96041.72;;;8.27;85.85
73024;BME280;72676;47.526;8.538;2023-11-21T06:53:01;96043.84;;;8.43;85.96
73024;BME280;72676;47.526;8.538;2023-11-21T06:55:30;96037.16;;;8.50;85.01
73024;BME280;72676;47.526;8.538;2023-11-21T06:57:57;96044.81;;;8.42;85.23
73024;BME280;72676;47.526;8.538;2023-11-21T07:00:24;96046.47;;;8.43;85.03
73024;BME280;72676;47.526;8.538;2023-11-21T07:02:50;96050.59;;;8.45;84.73
73024;BME280;72676;47.526;8.538;2023-11-21T07:05:17;96053.22;;;8.25;85.34
73024;BME280;72676;47.526;8.538;2023-11-21T07:07:48;96050.72;;;8.44;85.66
73024;BME280;72676;47.526;8.538;2023-11-21T07:10:15;96053.91;;;8.57;84.61
73024;BME280;72676;47.526;8.538;2023-11-21T07:12:41;96053.69;;;8.69;84.78
73024;BME280;72676;47.526;8.538;2023-11-21T07:15:08;96055.63;;;8.67;84.28
73024;BME280;72676;47.526;8.538;2023-11-21T07:17:38;96056.97;;;8.62;84.34
73024;BME280;72676;47.526;8.538;2023-11-21T07:20:07;96051.47;;;8.55;84.67
73024;BME280;72676;47.526;8.538;2023-11-21T07:22:34;96051.22;;;8.68;84.82
73024;BME280;72676;47.526;8.538;2023-11-21T07:25:01;96050.78;;;8.63;84.54
73024;BME280;72676;47.526;8.538;2023-11-21T07:27:28;96051.34;;;8.66;84.54
73024;BME280;72676;47.526;8.538;2023-11-21T07:29:54;96056.41;;;8.58;84.61
73024;BME280;72676;47.526;8.538;2023-11-21T07:32:21;96063.50;;;8.47;85.27
73024;BME280;72676;47.526;8.538;2023-11-21T07:34:48;96069.28;;;8.50;85.70
73024;BME280;72676;47.526;8.538;2023-11-21T07:37:14;96068.97;;;8.44;85.87
73024;BME280;72676;47.526;8.538;2023-11-21T07:39:41;96071.72;;;8.42;86.17
73024;BME280;72676;47.526;8.538;2023-11-21T07:42:08;96065.69;;;8.42;86.47
73024;BME280;72676;47.526;8.538;2023-11-21T07:44:35;96074.56;;;8.60;86.71
73024;BME280;72676;47.526;8.538;2023-11-21T07:47:01;96075.94;;;8.63;86.42
73024;BME280;72676;47.526;8.538;2023-11-21T07:49:28;96082.94;;;8.63;85.60
73024;BME280;72676;47.526;8.538;2023-11-21T07:51:54;96078.03;;;8.69;85.30
73024;BME280;72676;47.526;8.538;2023-11-21T07:54:21;96078.88;;;8.79;84.94
73024;BME280;72676;47.526;8.538;2023-11-21T07:56:48;96074.00;;;8.65;85.49
73024;BME280;72676;47.526;8.538;2023-11-21T07:59:14;96074.88;;;8.75;85.28
73024;BME280;72676;47.526;8.538;2023-11-21T08:01:41;96076.78;;;8.73;85.37
73024;BME280;72676;47.526;8.538;2023-11-21T08:04:09;96076.28;;;8.89;84.89
73024;BME280;72676;47.526;8.538;2023-11-21T08:06:36;96076.69;;;8.84;84.83
73024;BME280;72676;47.526;8.538;2023-11-21T08:09:02;96068.03;;;8.84;85.33
73024;BME280;72676;47.526;8.538;2023-11-21T08:11:29;96065.03;;;8.88;84.61
73024;BME280;72676;47.526;8.538;2023-11-21T08:13:57;96076.00;;;8.82;85.11
73024;BME280;72676;47.526;8.538;2023-11-21T08:16:25;96085.31;;;8.75;84.87
73024;BME280;72676;47.526;8.538;2023-11-21T08:18:52;96082.00;;;8.73;85.46
73024;BME280;72676;47.526;8.538;2023-11-21T08:21:18;96081.91;;;8.84;84.85
73024;BME280;72676;47.526;8.538;2023-11-21T08:23:45;96083.03;;;8.82;84.94
73024;BME280;72676;47.526;8.538;2023-11-21T08:26:15;96082.22;;;8.91;84.86
73024;BME280;72676;47.526;8.538;2023-11-21T08:28:42;96080.88;;;8.96;84.67
73024;BME280;72676;47.526;8.538;2023-11-21T08:31:08;96079.97;;;8.77;84.47
73024;BME280;72676;47.526;8.538;2023-11-21T08:33:37;96084.00;;;8.90;84.61
73024;BME280;72676;47.526;8.538;2023-11-21T08:36:08;96075.09;;;8.93;84.90
73024;BME280;72676;47.526;8.538;2023-11-21T08:38:35;96089.06;;;8.82;85.37
73024;BME280;72676;47.526;8.538;2023-11-21T08:41:05;96084.28;;;8.87;84.54
73024;BME280;72676;47.526;8.538;2023-11-21T08:43:35;96095.81;;;8.85;84.23
73024;BME280;72676;47.526;8.538;2023-11-21T08:46:01;96094.03;;;8.85;84.65
73024;BME280;72676;47.526;8.538;2023-11-21T08:48:27;96094.44;;;8.90;84.24
73024;BME280;72676;47.526;8.538;2023-11-21T08:50:56;96080.66;;;8.79;84.19
73024;BME280;72676;47.526;8.538;2023-11-21T08:53:22;96091.38;;;8.76;83.99
73024;BME280;72676;47.526;8.538;2023-11-21T08:55:49;96094.09;;;8.74;84.32
73024;BME280;72676;47.526;8.538;2023-11-21T08:58:16;96103.06;;;8.81;84.82
73024;BME280;72676;47.526;8.538;2023-11-21T09:00:43;96095.25;;;8.81;84.69
73024;BME280;72676;47.526;8.538;2023-11-21T09:03:13;96099.16;;;8.96;84.65
73024;BME280;72676;47.526;8.538;2023-11-21T09:05:39;96100.47;;;8.81;84.75
73024;BME280;72676;47.526;8.538;2023-11-21T09:08:06;96097.00;;;8.71;85.33
73024;BME280;72676;47.526;8.538;2023-11-21T09:10:33;96101.03;;;8.85;85.34
73024;BME280;72676;47.526;8.538;2023-11-21T09:13:02;96109.31;;;8.90;84.88
73024;BME280;72676;47.526;8.538;2023-11-21T09:15:29;96111.78;;;8.91;84.92
73024;BME280;72676;47.526;8.538;2023-11-21T09:17:56;96116.66;;;8.75;85.10
73024;BME280;72676;47.526;8.538;2023-11-21T09:20:22;96116.31;;;8.89;85.03
73024;BME280;72676;47.526;8.538;2023-11-21T09:22:49;96112.31;;;8.85;85.34
73024;BME280;72676;47.526;8.538;2023-11-21T09:25:16;96115.31;;;8.81;85.90
73024;BME280;72676;47.526;8.538;2023-11-21T09:27:42;96119.34;;;8.94;85.77
73024;BME280;72676;47.526;8.538;2023-11-21T09:30:09;96117.84;;;9.01;86.13
73024;BME280;72676;47.526;8.538;2023-11-21T09:32:37;96114.84;;;9.06;85.93
73024;BME280;72676;47.526;8.538;2023-11-21T09:35:05;96115.13;;;9.12;85.88
73024;BME280;72676;47.526;8.538;2023-11-21T09:37:31;96125.25;;;9.36;85.01
73024;BME280;72676;47.526;8.538;2023-11-21T09:39:58;96120.31;;;9.42;84.88
73024;BME280;72676;47.526;8.538;2023-11-21T09:42:38;96118.34;;;9.25;84.40
73024;BME280;72676;47.526;8.538;2023-11-21T09:45:31;96122.16;;;9.12;85.22
73024;BME280;72676;47.526;8.538;2023-11-21T09:48:00;96131.34;;;9.06;85.77
73024;BME280;72676;47.526;8.538;2023-11-21T09:50:27;96127.22;;;9.04;85.83
73024;BME280;72676;47.526;8.538;2023-11-21T09:53:11;96138.16;;;8.88;86.37
73024;BME280;72676;47.526;8.538;2023-11-21T09:55:43;96133.22;;;8.85;86.47
73024;BME280;72676;47.526;8.538;2023-11-21T09:58:11;96129.88;;;8.83;86.28
73024;BME280;72676;47.526;8.538;2023-11-21T10:00:44;96132.63;;;8.82;87.04
73024;BME280;72676;47.526;8.538;2023-11-21T10:03:12;96132.94;;;8.88;86.73
73024;BME280;72676;47.526;8.538;2023-11-21T10:05:42;96126.88;;;8.88;86.67
73024;BME280;72676;47.526;8.538;2023-11-21T10:08:10;96126.75;;;8.89;85.96
73024;BME280;72676;47.526;8.538;2023-11-21T10:10:37;96124.94;;;8.80;86.92
73024;BME280;72676;47.526;8.538;2023-11-21T10:13:06;96128.50;;;8.79;87.26
73024;BME280;72676;47.526;8.538;2023-11-21T10:15:34;96122.66;;;8.66;87.42
73024;BME280;72676;47.526;8.538;2023-11-21T10:18:02;96129.97;;;8.72;87.60
73024;BME280;72676;47.526;8.538;2023-11-21T10:20:30;96122.66;;;8.66;88.03
73024;BME280;72676;47.526;8.538;2023-11-21T10:22:57;96117.69;;;8.93;87.89
73024;BME280;72676;47.526;8.538;2023-11-21T10:25:24;96114.56;;;8.99;87.26
73024;BME280;72676;47.526;8.538;2023-11-21T10:27:57;96119.31;;;9.24;87.01
73024;BME280;72676;47.526;8.538;2023-11-21T10:30:28;96122.25;;;9.59;85.75
73024;BME280;72676;47.526;8.538;2023-11-21T10:32:59;96118.25;;;9.55;84.63
73024;BME280;72676;47.526;8.538;2023-11-21T10:35:38;96116.28;;;9.38;85.36
73024;BME280;72676;47.526;8.538;2023-11-21T10:38:05;96110.66;;;9.33;84.94
73024;BME280;72676;47.526;8.538;2023-11-21T10:40:31;96111.50;;;9.53;84.41
73024;BME280;72676;47.526;8.538;2023-11-21T10:43:08;96112.44;;;9.33;85.47
73024;BME280;72676;47.526;8.538;2023-11-21T10:45:39;96111.94;;;9.58;85.52
73024;BME280;72676;47.526;8.538;2023-11-21T10:48:07;96115.50;;;9.66;84.53
73024;BME280;72676;47.526;8.538;2023-11-21T10:50:37;96111.66;;;9.80;83.91
73024;BME280;72676;47.526;8.538;2023-11-21T10:53:04;96111.97;;;9.86;83.10
73024;BME280;72676;47.526;8.538;2023-11-21T10:55:32;96109.75;;;10.01;82.30
73024;BME280;72676;47.526;8.538;2023-11-21T10:58:01;96104.53;;;9.82;82.25
73024;BME280;72676;47.526;8.538;2023-11-21T11:00:29;96102.72;;;9.82;82.88
73024;BME280;72676;47.526;8.538;2023-11-21T11:02:56;96105.19;;;9.93;82.61
73024;BME280;72676;47.526;8.538;2023-11-21T11:05:23;96106.28;;;10.00;82.19
73024;BME280;72676;47.526;8.538;2023-11-21T11:07:57;96103.97;;;9.97;82.31
73024;BME280;72676;47.526;8.538;2023-11-21T11:10:27;96099.28;;;9.91;82.18
73024;BME280;72676;47.526;8.538;2023-11-21T11:12:56;96104.50;;;10.01;82.46
73024;BME280;72676;47.526;8.538;2023-11-21T11:15:27;96098.72;;;9.97;81.80
73024;BME280;72676;47.526;8.538;2023-11-21T11:17:55;96096.53;;;9.93;82.34
73024;BME280;72676;47.526;8.538;2023-11-21T11:20:36;96103.97;;;9.78;80.55
73024;BME280;72676;47.526;8.538;2023-11-21T11:31:45;96097.47;;;9.63;81.05
73024;BME280;72676;47.526;8.538;2023-11-21T11:34:38;96099.28;;;9.72;81.59
73024;BME280;72676;47.526;8.538;2023-11-21T11:37:08;96095.44;;;9.95;80.76
73024;BME280;72676;47.526;8.538;2023-11-21T11:39:37;96098.47;;;10.10;80.07
73024;BME280;72676;47.526;8.538;2023-11-21T11:42:07;96095.03;;;10.09;79.25
73024;BME280;72676;47.526;8.538;2023-11-21T11:47:26;96103.00;;;9.98;79.84
73024;BME280;72676;47.526;8.538;2023-11-21T11:50:02;96096.09;;;9.88;80.08
73024;BME280;72676;47.526;8.538;2023-11-21T11:52:36;96088.53;;;9.85;79.86
73024;BME280;72676;47.526;8.538;2023-11-21T11:55:06;96091.56;;;9.99;80.57
73024;BME280;72676;47.526;8.538;2023-11-21T11:57:34;96101.06;;;10.19;80.18
73024;BME280;72676;47.526;8.538;2023-11-21T12:03:01;96111.88;;;10.62;78.07
73024;BME280;72676;47.526;8.538;2023-11-21T12:05:32;96104.44;;;10.94;77.49
73024;BME280;72676;47.526;8.538;2023-11-21T12:08:03;96107.31;;;11.01;77.88
73024;BME280;72676;47.526;8.538;2023-11-21T12:10:32;96108.13;;;11.28;77.26
73024;BME280;72676;47.526;8.538;2023-11-21T12:13:19;96104.31;;;11.40;76.69
73024;BME280;72676;47.526;8.538;2023-11-21T12:15:45;96100.16;;;11.47;76.11
73024;BME280;72676;47.526;8.538;2023-11-21T12:18:12;96103.81;;;11.37;75.85
73024;BME280;72676;47.526;8.538;2023-11-21T12:20:38;96108.53;;;11.51;75.38
73024;BME280;72676;47.526;8.538;2023-11-21T12:23:07;96103.56;;;11.57;75.81
73024;BME280;72676;47.526;8.538;2023-11-21T12:25:35;96105.91;;;11.60;75.41
73024;BME280;72676;47.526;8.538;2023-11-21T12:28:03;96106.47;;;11.54;75.64
73024;BME280;72676;47.526;8.538;2023-11-21T12:30:31;96103.66;;;11.65;74.98
73024;BME280;72676;47.526;8.538;2023-11-21T12:32:59;96110.53;;;11.66;74.66
73024;BME280;72676;47.526;8.538;2023-11-21T12:35:30;96111.91;;;11.70;74.01
73024;BME280;72676;47.526;8.538;2023-11-21T12:38:01;96118.81;;;11.71;74.30
73024;BME280;72676;47.526;8.538;2023-11-21T12:40:32;96118.19;;;11.77;74.45
73024;BME280;72676;47.526;8.538;2023-11-21T12:42:59;96117.91;;;11.80;74.22
73024;BME280;72676;47.526;8.538;2023-11-21T12:45:28;96117.28;;;11.86;74.62
73024;BME280;72676;47.526;8.538;2023-11-21T12:50:27;96115.66;;;11.85;74.23
73024;BME280;72676;47.526;8.538;2023-11-21T12:53:00;96117.91;;;11.80;74.16
73024;BME280;72676;47.526;8.538;2023-11-21T12:55:30;96109.88;;;11.81;73.88
73024;BME280;72676;47.526;8.538;2023-11-21T12:57:57;96109.88;;;11.81;73.87
73024;BME280;72676;47.526;8.538;2023-11-21T13:00:35;96106.78;;;11.86;73.82
73024;BME280;72676;47.526;8.538;2023-11-21T13:03:06;96124.22;;;11.87;73.47
73024;BME280;72676;47.526;8.538;2023-11-21T13:05:35;96121.59;;;11.87;73.18
73024;BME280;72676;47.526;8.538;2023-11-21T13:08:07;96128.72;;;11.94;73.23
73024;BME280;72676;47.526;8.538;2023-11-21T13:10:35;96123.16;;;11.97;73.12
73024;BME280;72676;47.526;8.538;2023-11-21T13:13:06;96124.00;;;11.98;73.18
73024;BME280;72676;47.526;8.538;2023-11-21T13:15:39;96121.38;;;11.98;73.19
73024;BME280;72676;47.526;8.538;2023-11-21T13:18:07;96123.31;;;11.96;73.09
73024;BME280;72676;47.526;8.538;2023-11-21T13:20:33;96121.56;;;12.04;73.06
73024;BME280;72676;47.526;8.538;2023-11-21T13:23:07;96122.69;;;12.02;73.29
73024;BME280;72676;47.526;8.538;2023-11-21T13:25:34;96125.41;;;12.10;73.43
73024;BME280;72676;47.526;8.538;2023-11-21T13:28:01;96126.88;;;11.95;73.66
73024;BME280;72676;47.526;8.538;2023-11-21T13:30:28;96124.19;;;12.04;73.25
73024;BME280;72676;47.526;8.538;2023-11-21T13:33:00;96122.09;;;12.08;73.64